sensor_id;sensor_type;location;lat;lon;timestamp;P1;durP1;ratioP1;P2;durP2;ratioP2
26920;SDS011;14483;47.844;9.660;2023-07-13T00:02:07;4.65;;;2.90;;
26920;SDS011;14483;47.844;9.660;2023-07-13T00:04:35;4.25;;;2.85;;
26920;SDS011;14483;47.844;9.660;2023-07-13T00:07:01;4.43;;;2.95;;
26920;SDS011;14483;47.844;9.660;2023-07-13T00:09:27;9.02;;;3.38;;
26920;SDS011;14483;47.844;9.660;2023-07-13T00:11:54;3.90;;;2.38;;
26920;SDS011;14483;47.844;9.660;2023-07-13T00:14:22;4.85;;;3.08;;
26920;SDS011;14483;47.844;9.660;2023-07-13T00:16:48;3.85;;;2.70;;
26920;SDS011;14483;47.844;9.660;2023-07-13T00:19:15;6.38;;;2.83;;
26920;SDS011;14483;47.844;9.660;2023-07-13T00:21:42;4.68;;;2.85;;
26920;SDS011;14483;47.844;9.660;2023-07-13T00:24:10;6.88;;;2.85;;
26920;SDS011;14483;47.844;9.660;2023-07-13T00:26:37;6.20;;;2.85;;
26920;SDS011;14483;47.844;9.660;2023-07-13T00:29:04;6.85;;;3.17;;
26920;SDS011;14483;47.844;9.660;2023-07-13T00:31:34;5.65;;;3.17;;
26920;SDS011;14483;47.844;9.660;2023-07-13T00:34:00;6.93;;;3.10;;
26920;SDS011;14483;47.844;9.660;2023-07-13T00:36:27;5.90;;;3.08;;
26920;SDS011;14483;47.844;9.660;2023-07-13T00:38:54;9.98;;;3.50;;
26920;SDS011;14483;47.844;9.660;2023-07-13T00:41:21;3.88;;;2.40;;
26920;SDS011;14483;47.844;9.660;2023-07-13T00:43:47;6.63;;;2.78;;
26920;SDS011;14483;47.844;9.660;2023-07-13T00:46:21;5.50;;;3.08;;
26920;SDS011;14483;47.844;9.660;2023-07-13T00:48:49;4.07;;;2.65;;
26920;SDS011;14483;47.844;9.660;2023-07-13T00:51:16;5.97;;;2.92;;
26920;SDS011;14483;47.844;9.660;2023-07-13T00:53:43;8.07;;;2.63;;
26920;SDS011;14483;47.844;9.660;2023-07-13T00:56:11;5.35;;;2.72;;
26920;SDS011;14483;47.844;9.660;2023-07-13T00:58:38;7.05;;;2.80;;
26920;SDS011;14483;47.844;9.660;2023-07-13T01:01:05;6.38;;;2.75;;
26920;SDS011;14483;47.844;9.660;2023-07-13T01:03:31;7.20;;;3.35;;
26920;SDS011;14483;47.844;9.660;2023-07-13T01:05:58;5.30;;;2.40;;
26920;SDS011;14483;47.844;9.660;2023-07-13T01:08:24;4.55;;;2.50;;
26920;SDS011;14483;47.844;9.660;2023-07-13T01:10:51;4.43;;;3.30;;
26920;SDS011;14483;47.844;9.660;2023-07-13T01:13:19;6.80;;;3.05;;
26920;SDS011;14483;47.844;9.660;2023-07-13T01:15:46;7.43;;;3.10;;
26920;SDS011;14483;47.844;9.660;2023-07-13T01:18:13;6.28;;;3.08;;
26920;SDS011;14483;47.844;9.660;2023-07-13T01:20:40;6.15;;;3.42;;
26920;SDS011;14483;47.844;9.660;2023-07-13T01:23:10;7.18;;;2.90;;
26920;SDS011;14483;47.844;9.660;2023-07-13T01:25:38;4.15;;;2.67;;
26920;SDS011;14483;47.844;9.660;2023-07-13T01:28:05;7.07;;;3.25;;
26920;SDS011;14483;47.844;9.660;2023-07-13T01:30:33;5.63;;;2.90;;
26920;SDS011;14483;47.844;9.660;2023-07-13T01:33:00;5.68;;;3.05;;
26920;SDS011;14483;47.844;9.660;2023-07-13T01:35:26;7.32;;;2.70;;
26920;SDS011;14483;47.844;9.660;2023-07-13T01:37:53;6.18;;;2.78;;
26920;SDS011;14483;47.844;9.660;2023-07-13T01:40:21;5.50;;;3.17;;
26920;SDS011;14483;47.844;9.660;2023-07-13T01:42:49;9.38;;;3.50;;
26920;SDS011;14483;47.844;9.660;2023-07-13T01:45:15;10.57;;;3.72;;
26920;SDS011;14483;47.844;9.660;2023-07-13T01:47:42;7.43;;;3.80;;
26920;SDS011;14483;47.844;9.660;2023-07-13T01:50:09;8.73;;;4.22;;
26920;SDS011;14483;47.844;9.660;2023-07-13T01:52:35;8.02;;;4.82;;
26920;SDS011;14483;47.844;9.660;2023-07-13T01:55:02;7.32;;;3.70;;
26920;SDS011;14483;47.844;9.660;2023-07-13T01:57:29;16.90;;;5.20;;
26920;SDS011;14483;47.844;9.660;2023-07-13T01:59:56;11.35;;;4.15;;
26920;SDS011;14483;47.844;9.660;2023-07-13T02:02:22;7.80;;;4.00;;
26920;SDS011;14483;47.844;9.660;2023-07-13T02:04:49;6.53;;;3.95;;
26920;SDS011;14483;47.844;9.660;2023-07-13T02:07:15;7.72;;;4.30;;
26920;SDS011;14483;47.844;9.660;2023-07-13T02:09:41;5.78;;;3.63;;
26920;SDS011;14483;47.844;9.660;2023-07-13T02:12:08;6.85;;;3.67;;
26920;SDS011;14483;47.844;9.660;2023-07-13T02:14:36;5.05;;;3.90;;
26920;SDS011;14483;47.844;9.660;2023-07-13T02:17:03;6.13;;;3.92;;
26920;SDS011;14483;47.844;9.660;2023-07-13T02:19:29;7.82;;;3.45;;
26920;SDS011;14483;47.844;9.660;2023-07-13T02:21:56;7.95;;;3.72;;
26920;SDS011;14483;47.844;9.660;2023-07-13T02:24:22;6.03;;;3.15;;
26920;SDS011;14483;47.844;9.660;2023-07-13T02:26:49;7.15;;;3.53;;
26920;SDS011;14483;47.844;9.660;2023-07-13T02:29:15;7.30;;;3.17;;
26920;SDS011;14483;47.844;9.660;2023-07-13T02:31:43;6.53;;;3.42;;
26920;SDS011;14483;47.844;9.660;2023-07-13T02:34:09;6.70;;;3.92;;
26920;SDS011;14483;47.844;9.660;2023-07-13T02:36:35;7.05;;;3.38;;
26920;SDS011;14483;47.844;9.660;2023-07-13T02:39:03;8.25;;;3.42;;
26920;SDS011;14483;47.844;9.660;2023-07-13T02:41:30;6.28;;;3.22;;
26920;SDS011;14483;47.844;9.660;2023-07-13T02:43:57;5.88;;;3.72;;
26920;SDS011;14483;47.844;9.660;2023-07-13T02:46:28;9.97;;;3.83;;
26920;SDS011;14483;47.844;9.660;2023-07-13T02:48:56;13.63;;;3.72;;
26920;SDS011;14483;47.844;9.660;2023-07-13T02:51:22;5.45;;;2.80;;
26920;SDS011;14483;47.844;9.660;2023-07-13T02:53:49;4.95;;;2.80;;
26920;SDS011;14483;47.844;9.660;2023-07-13T02:56:15;5.18;;;3.10;;
26920;SDS011;14483;47.844;9.660;2023-07-13T02:58:41;6.22;;;3.20;;
26920;SDS011;14483;47.844;9.660;2023-07-13T03:01:08;5.53;;;3.25;;
26920;SDS011;14483;47.844;9.660;2023-07-13T03:03:35;7.18;;;3.22;;
26920;SDS011;14483;47.844;9.660;2023-07-13T03:06:03;6.70;;;3.15;;
26920;SDS011;14483;47.844;9.660;2023-07-13T03:08:31;5.97;;;3.10;;
26920;SDS011;14483;47.844;9.660;2023-07-13T03:11:00;5.68;;;3.25;;
26920;SDS011;14483;47.844;9.660;2023-07-13T03:13:27;5.72;;;3.20;;
26920;SDS011;14483;47.844;9.660;2023-07-13T03:15:53;6.13;;;3.03;;
26920;SDS011;14483;47.844;9.660;2023-07-13T03:18:20;5.05;;;3.08;;
26920;SDS011;14483;47.844;9.660;2023-07-13T03:20:46;7.38;;;3.05;;
26920;SDS011;14483;47.844;9.660;2023-07-13T03:23:14;5.53;;;3.17;;
26920;SDS011;14483;47.844;9.660;2023-07-13T03:25:40;5.63;;;2.92;;
26920;SDS011;14483;47.844;9.660;2023-07-13T03:28:06;7.57;;;3.22;;
26920;SDS011;14483;47.844;9.660;2023-07-13T03:30:33;4.60;;;2.80;;
26920;SDS011;14483;47.844;9.660;2023-07-13T03:32:59;5.28;;;3.28;;
26920;SDS011;14483;47.844;9.660;2023-07-13T03:35:26;5.82;;;2.88;;
26920;SDS011;14483;47.844;9.660;2023-07-13T03:37:52;5.20;;;2.55;;
26920;SDS011;14483;47.844;9.660;2023-07-13T03:40:20;6.68;;;2.80;;
26920;SDS011;14483;47.844;9.660;2023-07-13T03:42:46;5.47;;;2.42;;
26920;SDS011;14483;47.844;9.660;2023-07-13T03:45:13;3.35;;;2.42;;
26920;SDS011;14483;47.844;9.660;2023-07-13T03:47:39;5.53;;;3.35;;
26920;SDS011;14483;47.844;9.660;2023-07-13T03:50:06;7.10;;;2.80;;
26920;SDS011;14483;47.844;9.660;2023-07-13T03:52:32;5.45;;;2.90;;
26920;SDS011;14483;47.844;9.660;2023-07-13T03:54:59;4.97;;;2.72;;
26920;SDS011;14483;47.844;9.660;2023-07-13T03:57:26;3.03;;;2.13;;
26920;SDS011;14483;47.844;9.660;2023-07-13T03:59:53;5.68;;;2.50;;
26920;SDS011;14483;47.844;9.660;2023-07-13T04:02:19;8.25;;;2.85;;
26920;SDS011;14483;47.844;9.660;2023-07-13T04:04:46;5.82;;;3.40;;
26920;SDS011;14483;47.844;9.660;2023-07-13T04:07:12;4.43;;;2.67;;
26920;SDS011;14483;47.844;9.660;2023-07-13T04:09:38;6.50;;;2.90;;
26920;SDS011;14483;47.844;9.660;2023-07-13T04:12:08;4.57;;;2.53;;
26920;SDS011;14483;47.844;9.660;2023-07-13T04:14:35;4.82;;;2.90;;
26920;SDS011;14483;47.844;9.660;2023-07-13T04:17:02;6.65;;;2.70;;
26920;SDS011;14483;47.844;9.660;2023-07-13T04:19:28;4.00;;;2.70;;
26920;SDS011;14483;47.844;9.660;2023-07-13T04:21:54;4.40;;;2.50;;
26920;SDS011;14483;47.844;9.660;2023-07-13T04:24:21;5.55;;;2.60;;
26920;SDS011;14483;47.844;9.660;2023-07-13T04:26:47;6.03;;;2.95;;
26920;SDS011;14483;47.844;9.660;2023-07-13T04:29:14;3.33;;;2.67;;
26920;SDS011;14483;47.844;9.660;2023-07-13T04:31:44;5.15;;;2.88;;
26920;SDS011;14483;47.844;9.660;2023-07-13T04:34:10;4.88;;;2.78;;
26920;SDS011;14483;47.844;9.660;2023-07-13T04:36:37;5.38;;;3.20;;
26920;SDS011;14483;47.844;9.660;2023-07-13T04:39:03;6.35;;;3.13;;
26920;SDS011;14483;47.844;9.660;2023-07-13T04:41:29;7.32;;;2.78;;
26920;SDS011;14483;47.844;9.660;2023-07-13T04:43:55;4.20;;;2.80;;
26920;SDS011;14483;47.844;9.660;2023-07-13T04:46:21;6.90;;;2.80;;
26920;SDS011;14483;47.844;9.660;2023-07-13T04:48:50;6.93;;;2.92;;
26920;SDS011;14483;47.844;9.660;2023-07-13T04:51:18;7.47;;;3.03;;
26920;SDS011;14483;47.844;9.660;2023-07-13T04:53:47;6.28;;;3.50;;
26920;SDS011;14483;47.844;9.660;2023-07-13T04:56:14;11.52;;;3.92;;
26920;SDS011;14483;47.844;9.660;2023-07-13T04:58:40;6.40;;;3.25;;
26920;SDS011;14483;47.844;9.660;2023-07-13T05:01:06;4.88;;;3.15;;
26920;SDS011;14483;47.844;9.660;2023-07-13T05:03:34;5.13;;;3.10;;
26920;SDS011;14483;47.844;9.660;2023-07-13T05:06:02;7.38;;;3.42;;
26920;SDS011;14483;47.844;9.660;2023-07-13T05:08:29;4.97;;;3.03;;
26920;SDS011;14483;47.844;9.660;2023-07-13T05:10:55;11.52;;;3.53;;
26920;SDS011;14483;47.844;9.660;2023-07-13T05:13:22;3.90;;;3.00;;
26920;SDS011;14483;47.844;9.660;2023-07-13T05:15:55;5.18;;;3.10;;
26920;SDS011;14483;47.844;9.660;2023-07-13T05:18:22;6.40;;;4.00;;
26920;SDS011;14483;47.844;9.660;2023-07-13T05:20:54;8.07;;;3.75;;
26920;SDS011;14483;47.844;9.660;2023-07-13T05:23:21;5.97;;;3.65;;
26920;SDS011;14483;47.844;9.660;2023-07-13T05:25:48;6.93;;;3.70;;
26920;SDS011;14483;47.844;9.660;2023-07-13T05:28:14;5.53;;;3.55;;
26920;SDS011;14483;47.844;9.660;2023-07-13T05:30:44;7.25;;;3.47;;
26920;SDS011;14483;47.844;9.660;2023-07-13T05:33:11;6.18;;;3.53;;
26920;SDS011;14483;47.844;9.660;2023-07-13T05:35:37;11.63;;;3.83;;
26920;SDS011;14483;47.844;9.660;2023-07-13T05:38:03;5.80;;;3.45;;
26920;SDS011;14483;47.844;9.660;2023-07-13T05:40:31;5.03;;;2.85;;
26920;SDS011;14483;47.844;9.660;2023-07-13T05:42:57;5.38;;;3.60;;
26920;SDS011;14483;47.844;9.660;2023-07-13T05:45:24;8.43;;;4.60;;
26920;SDS011;14483;47.844;9.660;2023-07-13T05:47:51;8.73;;;3.92;;
26920;SDS011;14483;47.844;9.660;2023-07-13T05:50:17;7.05;;;3.42;;
26920;SDS011;14483;47.844;9.660;2023-07-13T05:52:43;7.07;;;3.45;;
26920;SDS011;14483;47.844;9.660;2023-07-13T05:55:10;4.40;;;3.10;;
26920;SDS011;14483;47.844;9.660;2023-07-13T05:57:37;5.55;;;3.17;;
26920;SDS011;14483;47.844;9.660;2023-07-13T06:00:04;10.60;;;4.07;;
26920;SDS011;14483;47.844;9.660;2023-07-13T06:02:31;5.50;;;3.50;;
26920;SDS011;14483;47.844;9.660;2023-07-13T06:04:57;9.07;;;3.45;;
26920;SDS011;14483;47.844;9.660;2023-07-13T06:07:24;7.30;;;4.50;;
26920;SDS011;14483;47.844;9.660;2023-07-13T06:09:50;6.00;;;3.75;;
26920;SDS011;14483;47.844;9.660;2023-07-13T06:12:16;11.70;;;5.00;;
26920;SDS011;14483;47.844;9.660;2023-07-13T06:14:44;8.93;;;4.28;;
26920;SDS011;14483;47.844;9.660;2023-07-13T06:17:10;6.50;;;3.60;;
26920;SDS011;14483;47.844;9.660;2023-07-13T06:19:37;9.95;;;4.20;;
26920;SDS011;14483;47.844;9.660;2023-07-13T06:22:03;7.00;;;3.90;;
26920;SDS011;14483;47.844;9.660;2023-07-13T06:24:30;8.05;;;4.20;;
26920;SDS011;14483;47.844;9.660;2023-07-13T06:26:56;9.10;;;4.65;;
26920;SDS011;14483;47.844;9.660;2023-07-13T06:29:23;9.40;;;4.20;;
26920;SDS011;14483;47.844;9.660;2023-07-13T06:31:50;7.57;;;4.50;;
26920;SDS011;14483;47.844;9.660;2023-07-13T06:34:17;8.77;;;4.32;;
26920;SDS011;14483;47.844;9.660;2023-07-13T06:36:43;6.93;;;4.05;;
26920;SDS011;14483;47.844;9.660;2023-07-13T06:39:10;5.50;;;3.75;;
26920;SDS011;14483;47.844;9.660;2023-07-13T06:41:36;8.05;;;3.40;;
26920;SDS011;14483;47.844;9.660;2023-07-13T06:44:04;9.75;;;3.95;;
26920;SDS011;14483;47.844;9.660;2023-07-13T06:46:31;11.98;;;4.30;;
26920;SDS011;14483;47.844;9.660;2023-07-13T06:48:58;6.10;;;3.20;;
26920;SDS011;14483;47.844;9.660;2023-07-13T06:51:25;5.63;;;3.15;;
26920;SDS011;14483;47.844;9.660;2023-07-13T06:53:51;7.45;;;3.40;;
26920;SDS011;14483;47.844;9.660;2023-07-13T06:56:18;5.20;;;4.00;;
26920;SDS011;14483;47.844;9.660;2023-07-13T06:58:44;9.00;;;3.95;;
26920;SDS011;14483;47.844;9.660;2023-07-13T07:01:10;6.93;;;3.70;;
26920;SDS011;14483;47.844;9.660;2023-07-13T07:03:37;5.90;;;4.07;;
26920;SDS011;14483;47.844;9.660;2023-07-13T07:06:10;9.50;;;4.05;;
26920;SDS011;14483;47.844;9.660;2023-07-13T07:08:38;6.35;;;4.13;;
26920;SDS011;14483;47.844;9.660;2023-07-13T07:11:05;7.10;;;3.90;;
26920;SDS011;14483;47.844;9.660;2023-07-13T07:13:32;10.20;;;3.97;;
26920;SDS011;14483;47.844;9.660;2023-07-13T07:15:58;9.65;;;4.30;;
26920;SDS011;14483;47.844;9.660;2023-07-13T07:18:25;10.98;;;3.40;;
26920;SDS011;14483;47.844;9.660;2023-07-13T07:20:52;9.77;;;3.85;;
26920;SDS011;14483;47.844;9.660;2023-07-13T07:23:19;6.63;;;3.10;;
26920;SDS011;14483;47.844;9.660;2023-07-13T07:25:46;6.15;;;2.70;;
26920;SDS011;14483;47.844;9.660;2023-07-13T07:28:14;8.18;;;2.35;;
26920;SDS011;14483;47.844;9.660;2023-07-13T07:30:43;6.53;;;2.53;;
26920;SDS011;14483;47.844;9.660;2023-07-13T07:33:09;9.57;;;2.30;;
26920;SDS011;14483;47.844;9.660;2023-07-13T07:35:36;3.60;;;2.05;;
26920;SDS011;14483;47.844;9.660;2023-07-13T07:38:02;3.95;;;2.70;;
26920;SDS011;14483;47.844;9.660;2023-07-13T07:40:30;4.25;;;2.10;;
26920;SDS011;14483;47.844;9.660;2023-07-13T07:42:56;3.55;;;1.55;;
26920;SDS011;14483;47.844;9.660;2023-07-13T07:45:22;6.53;;;2.20;;
26920;SDS011;14483;47.844;9.660;2023-07-13T07:47:49;5.93;;;1.80;;
26920;SDS011;14483;47.844;9.660;2023-07-13T07:50:16;8.10;;;2.20;;
26920;SDS011;14483;47.844;9.660;2023-07-13T07:52:42;6.25;;;2.20;;
26920;SDS011;14483;47.844;9.660;2023-07-13T07:55:09;8.43;;;2.25;;
26920;SDS011;14483;47.844;9.660;2023-07-13T07:57:36;4.13;;;2.03;;
26920;SDS011;14483;47.844;9.660;2023-07-13T08:00:03;9.32;;;2.63;;
26920;SDS011;14483;47.844;9.660;2023-07-13T08:02:31;6.95;;;2.30;;
26920;SDS011;14483;47.844;9.660;2023-07-13T08:04:57;8.20;;;2.17;;
26920;SDS011;14483;47.844;9.660;2023-07-13T08:07:24;6.30;;;1.88;;
26920;SDS011;14483;47.844;9.660;2023-07-13T08:09:51;3.13;;;1.90;;
26920;SDS011;14483;47.844;9.660;2023-07-13T08:12:18;8.18;;;2.58;;
26920;SDS011;14483;47.844;9.660;2023-07-13T08:14:46;8.27;;;1.85;;
26920;SDS011;14483;47.844;9.660;2023-07-13T08:17:15;4.53;;;2.17;;
26920;SDS011;14483;47.844;9.660;2023-07-13T08:19:41;8.15;;;2.20;;
26920;SDS011;14483;47.844;9.660;2023-07-13T08:22:08;5.03;;;2.67;;
26920;SDS011;14483;47.844;9.660;2023-07-13T08:24:34;6.53;;;2.15;;
26920;SDS011;14483;47.844;9.660;2023-07-13T08:27:01;6.28;;;2.03;;
26920;SDS011;14483;47.844;9.660;2023-07-13T08:29:27;6.65;;;1.30;;
26920;SDS011;14483;47.844;9.660;2023-07-13T08:31:55;8.05;;;2.20;;
26920;SDS011;14483;47.844;9.660;2023-07-13T08:34:21;10.85;;;2.40;;
26920;SDS011;14483;47.844;9.660;2023-07-13T08:36:47;6.43;;;2.08;;
26920;SDS011;14483;47.844;9.660;2023-07-13T08:39:14;7.13;;;2.05;;
26920;SDS011;14483;47.844;9.660;2023-07-13T08:41:40;5.18;;;1.98;;
26920;SDS011;14483;47.844;9.660;2023-07-13T08:44:07;3.38;;;2.10;;
26920;SDS011;14483;47.844;9.660;2023-07-13T08:46:41;6.03;;;2.00;;
26920;SDS011;14483;47.844;9.660;2023-07-13T08:49:10;4.28;;;2.00;;
26920;SDS011;14483;47.844;9.660;2023-07-13T08:51:39;6.88;;;2.50;;
26920;SDS011;14483;47.844;9.660;2023-07-13T08:54:10;4.78;;;1.88;;
26920;SDS011;14483;47.844;9.660;2023-07-13T08:56:38;7.53;;;1.42;;
26920;SDS011;14483;47.844;9.660;2023-07-13T08:59:05;4.88;;;1.90;;
26920;SDS011;14483;47.844;9.660;2023-07-13T09:01:41;6.95;;;1.90;;
26920;SDS011;14483;47.844;9.660;2023-07-13T09:04:11;7.47;;;2.08;;
26920;SDS011;14483;47.844;9.660;2023-07-13T09:06:44;6.40;;;2.05;;
26920;SDS011;14483;47.844;9.660;2023-07-13T09:09:15;4.30;;;1.73;;
26920;SDS011;14483;47.844;9.660;2023-07-13T09:14:17;12.95;;;4.03;;
26920;SDS011;14483;47.844;9.660;2023-07-13T09:16:45;7.65;;;1.90;;
26920;SDS011;14483;47.844;9.660;2023-07-13T09:19:17;6.47;;;1.80;;
26920;SDS011;14483;47.844;9.660;2023-07-13T09:21:47;3.72;;;1.60;;
26920;SDS011;14483;47.844;9.660;2023-07-13T09:24:28;7.05;;;1.70;;
26920;SDS011;14483;47.844;9.660;2023-07-13T09:26:55;4.13;;;2.10;;
26920;SDS011;14483;47.844;9.660;2023-07-13T09:29:24;4.63;;;1.88;;
26920;SDS011;14483;47.844;9.660;2023-07-13T09:31:53;4.22;;;1.67;;
26920;SDS011;14483;47.844;9.660;2023-07-13T09:34:21;6.63;;;1.60;;
26920;SDS011;14483;47.844;9.660;2023-07-13T09:36:48;7.35;;;1.42;;
26920;SDS011;14483;47.844;9.660;2023-07-13T09:39:15;7.57;;;1.83;;
26920;SDS011;14483;47.844;9.660;2023-07-13T09:41:46;3.40;;;1.52;;
26920;SDS011;14483;47.844;9.660;2023-07-13T09:44:15;8.75;;;1.90;;
26920;SDS011;14483;47.844;9.660;2023-07-13T09:46:43;3.83;;;1.77;;
26920;SDS011;14483;47.844;9.660;2023-07-13T09:49:10;3.90;;;1.92;;
26920;SDS011;14483;47.844;9.660;2023-07-13T09:51:39;3.72;;;1.88;;
26920;SDS011;14483;47.844;9.660;2023-07-13T09:54:13;4.93;;;2.03;;
26920;SDS011;14483;47.844;9.660;2023-07-13T09:56:43;4.93;;;2.38;;
26920;SDS011;14483;47.844;9.660;2023-07-13T09:59:17;8.25;;;1.85;;
26920;SDS011;14483;47.844;9.660;2023-07-13T10:01:44;3.90;;;1.70;;
26920;SDS011;14483;47.844;9.660;2023-07-13T10:04:11;5.40;;;2.28;;
26920;SDS011;14483;47.844;9.660;2023-07-13T10:06:39;7.75;;;1.80;;
26920;SDS011;14483;47.844;9.660;2023-07-13T10:09:08;4.80;;;1.90;;
26920;SDS011;14483;47.844;9.660;2023-07-13T10:11:35;4.47;;;1.73;;
26920;SDS011;14483;47.844;9.660;2023-07-13T10:14:03;4.03;;;1.55;;
26920;SDS011;14483;47.844;9.660;2023-07-13T10:16:35;8.20;;;2.30;;
26920;SDS011;14483;47.844;9.660;2023-07-13T10:19:03;5.65;;;1.73;;
26920;SDS011;14483;47.844;9.660;2023-07-13T10:21:32;4.63;;;1.90;;
26920;SDS011;14483;47.844;9.660;2023-07-13T10:24:02;6.93;;;2.67;;
26920;SDS011;14483;47.844;9.660;2023-07-13T10:26:31;3.42;;;1.98;;
26920;SDS011;14483;47.844;9.660;2023-07-13T10:29:01;3.60;;;1.80;;
26920;SDS011;14483;47.844;9.660;2023-07-13T10:31:29;5.90;;;1.98;;
26920;SDS011;14483;47.844;9.660;2023-07-13T10:33:56;5.03;;;1.88;;
26920;SDS011;14483;47.844;9.660;2023-07-13T10:36:27;9.38;;;2.17;;
26920;SDS011;14483;47.844;9.660;2023-07-13T10:38:54;6.30;;;1.42;;
26920;SDS011;14483;47.844;9.660;2023-07-13T10:41:23;6.70;;;1.88;;
26920;SDS011;14483;47.844;9.660;2023-07-13T10:43:51;3.05;;;1.35;;
26920;SDS011;14483;47.844;9.660;2023-07-13T10:46:18;7.93;;;1.90;;
26920;SDS011;14483;47.844;9.660;2023-07-13T10:48:46;4.82;;;2.05;;
26920;SDS011;14483;47.844;9.660;2023-07-13T10:51:14;4.15;;;1.55;;
26920;SDS011;14483;47.844;9.660;2023-07-13T10:53:41;4.13;;;1.60;;
26920;SDS011;14483;47.844;9.660;2023-07-13T10:56:18;10.15;;;1.40;;
26920;SDS011;14483;47.844;9.660;2023-07-13T10:58:46;6.18;;;1.17;;
26920;SDS011;14483;47.844;9.660;2023-07-13T11:01:14;4.60;;;1.98;;
26920;SDS011;14483;47.844;9.660;2023-07-13T11:03:46;2.92;;;1.45;;
26920;SDS011;14483;47.844;9.660;2023-07-13T11:06:16;4.25;;;1.70;;
26920;SDS011;14483;47.844;9.660;2023-07-13T11:08:51;10.40;;;2.10;;
26920;SDS011;14483;47.844;9.660;2023-07-13T11:11:34;8.38;;;1.73;;
26920;SDS011;14483;47.844;9.660;2023-07-13T11:14:03;3.88;;;2.13;;
26920;SDS011;14483;47.844;9.660;2023-07-13T11:16:34;6.72;;;1.63;;
26920;SDS011;14483;47.844;9.660;2023-07-13T11:19:08;5.90;;;1.83;;
26920;SDS011;14483;47.844;9.660;2023-07-13T11:22:09;6.05;;;2.30;;
26920;SDS011;14483;47.844;9.660;2023-07-13T11:24:55;5.70;;;1.70;;
26920;SDS011;14483;47.844;9.660;2023-07-13T11:27:27;4.68;;;1.67;;
26920;SDS011;14483;47.844;9.660;2023-07-13T11:30:08;3.50;;;1.90;;
26920;SDS011;14483;47.844;9.660;2023-07-13T11:32:35;7.70;;;2.58;;
26920;SDS011;14483;47.844;9.660;2023-07-13T11:35:02;7.70;;;2.58;;
26920;SDS011;14483;47.844;9.660;2023-07-13T11:37:28;7.32;;;2.33;;
26920;SDS011;14483;47.844;9.660;2023-07-13T11:39:55;3.90;;;2.10;;
26920;SDS011;14483;47.844;9.660;2023-07-13T11:42:21;7.78;;;2.75;;
26920;SDS011;14483;47.844;9.660;2023-07-13T11:44:48;4.85;;;2.72;;
26920;SDS011;14483;47.844;9.660;2023-07-13T11:47:17;4.28;;;2.70;;
26920;SDS011;14483;47.844;9.660;2023-07-13T11:49:47;6.90;;;3.00;;
26920;SDS011;14483;47.844;9.660;2023-07-13T11:52:15;4.45;;;2.60;;
26920;SDS011;14483;47.844;9.660;2023-07-13T11:54:43;5.03;;;2.13;;
26920;SDS011;14483;47.844;9.660;2023-07-13T11:57:19;7.38;;;2.38;;
26920;SDS011;14483;47.844;9.660;2023-07-13T12:02:17;5.80;;;3.08;;
26920;SDS011;14483;47.844;9.660;2023-07-13T12:04:45;10.50;;;2.65;;
26920;SDS011;14483;47.844;9.660;2023-07-13T12:07:14;3.95;;;2.13;;
26920;SDS011;14483;47.844;9.660;2023-07-13T12:09:42;2.95;;;2.03;;
26920;SDS011;14483;47.844;9.660;2023-07-13T12:12:11;3.17;;;2.13;;
26920;SDS011;14483;47.844;9.660;2023-07-13T12:14:38;6.72;;;2.13;;
26920;SDS011;14483;47.844;9.660;2023-07-13T12:17:08;4.65;;;2.30;;
26920;SDS011;14483;47.844;9.660;2023-07-13T12:19:36;4.05;;;2.15;;
26920;SDS011;14483;47.844;9.660;2023-07-13T12:22:03;5.07;;;2.22;;
26920;SDS011;14483;47.844;9.660;2023-07-13T12:24:39;5.93;;;1.40;;
26920;SDS011;14483;47.844;9.660;2023-07-13T12:27:06;5.15;;;1.67;;
26920;SDS011;14483;47.844;9.660;2023-07-13T12:29:33;5.28;;;1.80;;
26920;SDS011;14483;47.844;9.660;2023-07-13T12:31:59;6.03;;;1.98;;
26920;SDS011;14483;47.844;9.660;2023-07-13T12:34:26;3.83;;;1.48;;
26920;SDS011;14483;47.844;9.660;2023-07-13T12:36:55;4.32;;;1.73;;
26920;SDS011;14483;47.844;9.660;2023-07-13T12:39:22;6.47;;;1.80;;
26920;SDS011;14483;47.844;9.660;2023-07-13T12:41:49;4.80;;;2.22;;
26920;SDS011;14483;47.844;9.660;2023-07-13T12:44:17;3.50;;;1.90;;
26920;SDS011;14483;47.844;9.660;2023-07-13T12:46:52;4.43;;;2.00;;
26920;SDS011;14483;47.844;9.660;2023-07-13T12:49:18;5.55;;;1.70;;
26920;SDS011;14483;47.844;9.660;2023-07-13T12:51:49;3.95;;;2.00;;
26920;SDS011;14483;47.844;9.660;2023-07-13T12:54:18;4.15;;;2.28;;
26920;SDS011;14483;47.844;9.660;2023-07-13T12:56:44;10.55;;;1.88;;
26920;SDS011;14483;47.844;9.660;2023-07-13T12:59:15;3.17;;;1.63;;
26920;SDS011;14483;47.844;9.660;2023-07-13T13:01:42;6.32;;;1.58;;
26920;SDS011;14483;47.844;9.660;2023-07-13T13:04:09;3.05;;;1.38;;
26920;SDS011;14483;47.844;9.660;2023-07-13T13:06:36;5.88;;;1.70;;
26920;SDS011;14483;47.844;9.660;2023-07-13T13:09:03;7.82;;;1.95;;
26920;SDS011;14483;47.844;9.660;2023-07-13T13:11:31;2.40;;;1.70;;
26920;SDS011;14483;47.844;9.660;2023-07-13T13:14:00;3.05;;;1.70;;
26920;SDS011;14483;47.844;9.660;2023-07-13T13:16:29;2.72;;;1.63;;
26920;SDS011;14483;47.844;9.660;2023-07-13T13:18:57;3.50;;;1.30;;
26920;SDS011;14483;47.844;9.660;2023-07-13T13:21:25;3.17;;;1.52;;
26920;SDS011;14483;47.844;9.660;2023-07-13T13:23:52;3.70;;;1.33;;
26920;SDS011;14483;47.844;9.660;2023-07-13T13:26:19;3.15;;;1.40;;
26920;SDS011;14483;47.844;9.660;2023-07-13T13:28:47;3.75;;;1.38;;
26920;SDS011;14483;47.844;9.660;2023-07-13T13:31:14;5.03;;;1.40;;
26920;SDS011;14483;47.844;9.660;2023-07-13T13:33:41;4.82;;;1.30;;
26920;SDS011;14483;47.844;9.660;2023-07-13T13:36:14;3.30;;;1.35;;
26920;SDS011;14483;47.844;9.660;2023-07-13T13:38:41;3.20;;;1.10;;
26920;SDS011;14483;47.844;9.660;2023-07-13T13:41:09;2.00;;;1.52;;
26920;SDS011;14483;47.844;9.660;2023-07-13T13:43:36;2.65;;;1.17;;
26920;SDS011;14483;47.844;9.660;2023-07-13T13:46:08;4.07;;;1.60;;
26920;SDS011;14483;47.844;9.660;2023-07-13T13:48:37;6.20;;;1.67;;
26920;SDS011;14483;47.844;9.660;2023-07-13T13:51:06;7.20;;;1.20;;
26920;SDS011;14483;47.844;9.660;2023-07-13T13:53:37;3.25;;;1.38;;
26920;SDS011;14483;47.844;9.660;2023-07-13T13:56:04;2.70;;;1.13;;
26920;SDS011;14483;47.844;9.660;2023-07-13T13:58:30;3.22;;;1.20;;
26920;SDS011;14483;47.844;9.660;2023-07-13T14:00:57;3.15;;;1.50;;
26920;SDS011;14483;47.844;9.660;2023-07-13T14:03:24;6.80;;;1.20;;
26920;SDS011;14483;47.844;9.660;2023-07-13T14:05:53;5.22;;;1.20;;
26920;SDS011;14483;47.844;9.660;2023-07-13T14:08:22;6.45;;;1.35;;
26920;SDS011;14483;47.844;9.660;2023-07-13T14:10:49;2.90;;;1.10;;
26920;SDS011;14483;47.844;9.660;2023-07-13T14:13:16;2.25;;;0.93;;
26920;SDS011;14483;47.844;9.660;2023-07-13T14:15:44;5.93;;;1.48;;
26920;SDS011;14483;47.844;9.660;2023-07-13T14:18:10;2.75;;;1.13;;
26920;SDS011;14483;47.844;9.660;2023-07-13T14:20:38;3.08;;;1.10;;
26920;SDS011;14483;47.844;9.660;2023-07-13T14:23:05;5.68;;;0.80;;
26920;SDS011;14483;47.844;9.660;2023-07-13T14:25:31;4.70;;;1.52;;
26920;SDS011;14483;47.844;9.660;2023-07-13T14:27:58;2.55;;;1.30;;
26920;SDS011;14483;47.844;9.660;2023-07-13T14:30:26;4.82;;;1.30;;
26920;SDS011;14483;47.844;9.660;2023-07-13T14:32:52;3.75;;;1.30;;
26920;SDS011;14483;47.844;9.660;2023-07-13T14:35:20;3.25;;;1.30;;
26920;SDS011;14483;47.844;9.660;2023-07-13T14:37:48;3.22;;;1.15;;
26920;SDS011;14483;47.844;9.660;2023-07-13T14:40:15;2.50;;;1.45;;
26920;SDS011;14483;47.844;9.660;2023-07-13T14:42:41;6.80;;;1.35;;
26920;SDS011;14483;47.844;9.660;2023-07-13T14:45:12;3.95;;;1.30;;
26920;SDS011;14483;47.844;9.660;2023-07-13T14:47:39;3.33;;;0.90;;
26920;SDS011;14483;47.844;9.660;2023-07-13T14:50:07;2.10;;;1.02;;
26920;SDS011;14483;47.844;9.660;2023-07-13T14:52:38;2.03;;;1.38;;
26920;SDS011;14483;47.844;9.660;2023-07-13T14:55:07;2.05;;;1.10;;
26920;SDS011;14483;47.844;9.660;2023-07-13T14:57:34;1.77;;;1.45;;